CheckWX is a tool to help pilots better visualize weather data.  It is not intended as a substitute for an official pre-flight weather briefing.

12:43:29 UTC

VTCC TAF
Chiang Mai International Airport
Chiang Mai, Thailand
TAF VTCC 221100Z 2212/2318 15005KT 3000 HZ FEW030

Mar-22@
12:00 UTC

Mar-22 @ 12:00 UTC

Mar-23@
18:00 UTC

Mar-23 @ 18:00 UTC

TAF VTCC 221100Z 2212/2318 15005KT 3000 HZ FEW030
Wind
  • 150° at 5 KTS
Conditions
Haze
Cloud Levels
  • Few at 3,000' AGL